createdAt,value
2019-02-22T00:01:25.624Z,6.30
2019-02-22T00:03:55.243Z,6.20
2019-02-22T00:06:24.875Z,6.20
2019-02-22T00:08:54.467Z,6.20
2019-02-22T00:11:24.062Z,6.40
2019-02-22T00:13:53.681Z,6.30
2019-02-22T00:16:23.290Z,6.20
2019-02-22T00:18:52.892Z,6.10
2019-02-22T00:21:22.827Z,5.90
2019-02-22T00:23:52.420Z,6.00
2019-02-22T00:26:22.039Z,6.10
2019-02-22T00:28:51.641Z,6.10
2019-02-22T00:31:21.236Z,6.20
2019-02-22T00:33:50.856Z,6.30
2019-02-22T00:36:20.534Z,6.40
2019-02-22T00:38:50.147Z,6.50
2019-02-22T00:41:19.742Z,6.40
2019-02-22T00:43:49.367Z,6.40
2019-02-22T00:46:18.985Z,6.30
2019-02-22T00:48:48.588Z,6.40
2019-02-22T00:51:18.539Z,6.60
2019-02-22T00:53:48.160Z,6.60
2019-02-22T00:56:17.759Z,6.70
2019-02-22T00:58:47.374Z,6.60
2019-02-22T01:01:16.971Z,6.50
2019-02-22T01:03:46.598Z,6.60
2019-02-22T01:06:16.188Z,6.70
2019-02-22T01:08:46.501Z,6.70
2019-02-22T01:11:16.130Z,6.70
2019-02-22T01:13:45.747Z,6.80
2019-02-22T01:16:15.341Z,6.80
2019-02-22T01:18:44.967Z,6.70
2019-02-22T01:21:14.556Z,6.60
2019-02-22T01:23:44.147Z,6.60
2019-02-22T01:26:13.765Z,6.60
2019-02-22T01:28:44.140Z,6.60
2019-02-22T01:31:13.751Z,6.60
2019-02-22T01:33:43.357Z,6.60
2019-02-22T01:36:13.446Z,6.50
2019-02-22T01:38:43.058Z,6.40
2019-02-22T01:41:12.723Z,6.20
2019-02-22T01:43:42.343Z,6.10
2019-02-22T01:46:12.010Z,6.10
2019-02-22T01:48:41.625Z,6.00
2019-02-22T01:51:11.248Z,6.00
2019-02-22T01:53:40.857Z,5.80
2019-02-22T01:56:10.864Z,5.70
2019-02-22T01:58:48.328Z,5.60
2019-02-22T02:01:11.799Z,5.30
2019-02-22T02:03:41.484Z,5.10
2019-02-22T02:06:11.101Z,5.10
2019-02-22T02:08:40.718Z,5.10
2019-02-22T02:11:10.379Z,5.00
2019-02-22T02:13:39.995Z,5.00
2019-02-22T02:16:09.591Z,5.00
2019-02-22T02:18:39.219Z,5.00
2019-02-22T02:21:08.835Z,5.00
2019-02-22T02:23:38.448Z,5.10
2019-02-22T02:26:08.065Z,5.20
2019-02-22T02:28:37.725Z,5.30
2019-02-22T02:31:07.350Z,5.30
2019-02-22T02:33:36.953Z,5.20
2019-02-22T02:36:06.584Z,5.20
2019-02-22T02:38:36.196Z,5.30
2019-02-22T02:41:10.909Z,5.30
2019-02-22T02:43:37.210Z,5.20
2019-02-22T02:46:06.796Z,4.90
2019-02-22T02:48:36.415Z,4.80
2019-02-22T02:51:06.013Z,4.70
2019-02-22T02:53:35.639Z,4.70
2019-02-22T02:56:05.252Z,4.50
2019-02-22T02:58:34.883Z,4.60
2019-02-22T03:01:04.589Z,4.60
2019-02-22T03:03:34.175Z,4.50
2019-02-22T03:06:05.556Z,4.70
2019-02-22T03:08:35.449Z,4.80
2019-02-22T03:11:05.112Z,4.90
2019-02-22T03:13:34.739Z,4.80
2019-02-22T03:16:04.397Z,4.70
2019-02-22T03:18:34.018Z,4.60
2019-02-22T03:21:05.485Z,4.50
2019-02-22T03:23:35.115Z,4.60
2019-02-22T03:26:04.724Z,4.60
2019-02-22T03:28:34.349Z,4.60
2019-02-22T03:31:04.219Z,4.70
2019-02-22T03:33:33.817Z,4.80
2019-02-22T03:36:03.436Z,4.90
2019-02-22T03:38:33.033Z,5.00
2019-02-22T03:41:02.645Z,5.10
2019-02-22T03:43:32.270Z,5.10
2019-02-22T03:46:01.860Z,5.10
2019-02-22T03:48:31.480Z,5.10
2019-02-22T03:51:01.102Z,5.00
2019-02-22T03:53:32.530Z,4.90
2019-02-22T03:56:03.049Z,4.90
2019-02-22T03:58:32.738Z,4.80
2019-02-22T04:01:02.498Z,4.80
2019-02-22T04:03:32.260Z,4.80
2019-02-22T04:06:01.850Z,4.80
2019-02-22T04:08:31.463Z,4.80
2019-02-22T04:11:01.080Z,4.60
2019-02-22T04:13:30.701Z,4.60
2019-02-22T04:16:00.294Z,4.60
2019-02-22T04:18:29.900Z,5.20
2019-02-22T04:20:59.931Z,5.70
2019-02-22T04:23:29.618Z,6.30
2019-02-22T04:25:59.226Z,7.50
2019-02-22T04:28:28.845Z,8.70
2019-02-22T04:30:58.469Z,9.50
2019-02-22T04:33:28.066Z,9.80
2019-02-22T04:35:57.685Z,9.90
2019-02-22T04:38:27.517Z,10.10
2019-02-22T04:40:57.142Z,10.20
2019-02-22T04:43:27.041Z,10.20
2019-02-22T04:45:56.660Z,10.10
2019-02-22T04:48:26.260Z,10.00
2019-02-22T04:50:58.223Z,9.90
2019-02-22T04:53:28.133Z,9.70
2019-02-22T04:55:57.755Z,9.70
2019-02-22T04:58:28.207Z,9.60
2019-02-22T05:00:57.803Z,9.60
2019-02-22T05:03:27.398Z,9.80
2019-02-22T05:05:57.022Z,9.90
2019-02-22T05:08:26.617Z,9.90
2019-02-22T05:10:56.239Z,9.90
2019-02-22T05:13:25.836Z,10.00
2019-02-22T05:15:55.451Z,10.00
2019-02-22T05:18:25.076Z,10.20
2019-02-22T05:20:54.702Z,10.20
2019-02-22T05:23:24.297Z,10.30
2019-02-22T05:25:54.202Z,10.30
2019-02-22T05:28:23.827Z,10.20
2019-02-22T05:30:53.435Z,10.10
2019-02-22T05:33:23.138Z,9.90
2019-02-22T05:35:52.744Z,9.80
2019-02-22T05:38:23.093Z,9.60
2019-02-22T05:40:52.718Z,9.50
2019-02-22T05:43:22.310Z,9.50
2019-02-22T05:45:52.832Z,9.50
2019-02-22T05:48:25.346Z,9.50
2019-02-22T05:50:54.093Z,9.50
2019-02-22T05:53:23.712Z,9.50
2019-02-22T05:55:53.332Z,9.60
2019-02-22T05:58:22.934Z,9.70
2019-02-22T06:00:52.537Z,9.70
2019-02-22T06:03:22.151Z,9.60
2019-02-22T06:05:51.745Z,9.60
2019-02-22T06:08:21.343Z,9.50
2019-02-22T06:10:50.958Z,9.50
2019-02-22T06:13:20.539Z,9.60
2019-02-22T06:15:50.155Z,9.50
2019-02-22T06:18:23.031Z,9.60
2019-02-22T06:20:51.846Z,9.60
2019-02-22T06:23:22.334Z,9.50
2019-02-22T06:25:51.922Z,9.50
2019-02-22T06:28:21.511Z,9.30
2019-02-22T06:30:51.126Z,9.30
2019-02-22T06:33:20.811Z,9.20
2019-02-22T06:35:50.413Z,9.20
2019-02-22T06:38:20.001Z,9.20
2019-02-22T06:40:51.461Z,9.20
2019-02-22T06:43:21.046Z,9.20
2019-02-22T06:45:50.667Z,9.30
2019-02-22T06:48:21.979Z,9.40
2019-02-22T06:50:51.593Z,9.30
2019-02-22T06:53:21.211Z,9.20
2019-02-22T06:55:50.833Z,9.20
2019-02-22T06:58:20.423Z,9.20
2019-02-22T07:00:50.367Z,9.30
2019-02-22T07:03:19.956Z,9.30
2019-02-22T07:05:49.584Z,9.20
2019-02-22T07:08:19.201Z,9.20
2019-02-22T07:10:53.412Z,9.20
2019-02-22T07:13:24.544Z,9.10
2019-02-22T07:15:54.461Z,9.10
2019-02-22T07:18:24.048Z,9.00
2019-02-22T07:20:54.224Z,9.00
2019-02-22T07:23:24.127Z,9.00
2019-02-22T07:25:53.717Z,9.00
2019-02-22T07:28:23.307Z,9.10
2019-02-22T07:30:52.931Z,9.10
2019-02-22T07:33:22.615Z,9.10
2019-02-22T07:35:52.235Z,9.10
2019-02-22T07:38:21.842Z,9.20
2019-02-22T07:40:52.300Z,9.30
2019-02-22T07:43:21.913Z,9.30
2019-02-22T07:45:53.284Z,9.30
2019-02-22T07:48:22.895Z,9.30
2019-02-22T07:50:57.608Z,9.40
2019-02-22T07:53:23.831Z,9.50
2019-02-22T07:55:53.424Z,9.60
2019-02-22T07:58:23.800Z,9.70
2019-02-22T08:00:53.395Z,9.80
2019-02-22T08:03:23.023Z,10.00
2019-02-22T08:05:52.632Z,10.10
2019-02-22T08:08:24.020Z,10.20
2019-02-22T08:10:53.654Z,10.20
2019-02-22T08:13:23.240Z,10.00
2019-02-22T08:15:53.344Z,9.80
2019-02-22T08:18:22.942Z,9.80
2019-02-22T08:20:52.818Z,9.80
2019-02-22T08:23:22.424Z,9.80
2019-02-22T08:25:52.059Z,9.90
2019-02-22T08:28:21.738Z,10.00
2019-02-22T08:30:52.140Z,10.10
2019-02-22T08:33:21.833Z,10.20
2019-02-22T08:35:51.530Z,10.40
2019-02-22T08:38:21.183Z,10.50
2019-02-22T08:40:50.805Z,10.50
2019-02-22T08:43:30.745Z,10.70
2019-02-22T08:45:51.834Z,10.90
2019-02-22T08:48:21.805Z,11.00
2019-02-22T08:50:51.459Z,11.20
2019-02-22T08:53:21.068Z,11.20
2019-02-22T08:55:50.663Z,11.20
2019-02-22T08:58:20.305Z,11.10
2019-02-22T09:00:49.980Z,11.00
2019-02-22T09:03:19.609Z,11.00
2019-02-22T09:05:49.240Z,10.90
2019-02-22T09:08:19.611Z,11.00
2019-02-22T09:11:00.076Z,11.10
2019-02-22T09:13:21.400Z,11.40
2019-02-22T09:15:51.033Z,11.70
2019-02-22T09:18:20.634Z,11.90
2019-02-22T09:20:50.263Z,11.70
2019-02-22T09:23:19.859Z,11.60
2019-02-22T09:25:49.848Z,11.50
2019-02-22T09:28:19.447Z,11.40
2019-02-22T09:30:50.066Z,11.20
2019-02-22T09:33:19.699Z,11.10
2019-02-22T09:35:49.324Z,11.20
2019-02-22T09:38:19.711Z,11.20
2019-02-22T09:40:49.341Z,11.30
2019-02-22T09:43:19.217Z,11.60
2019-02-22T09:45:49.785Z,11.80
2019-02-22T09:48:19.403Z,11.80
2019-02-22T09:50:49.040Z,11.60
2019-02-22T09:53:19.208Z,11.50
2019-02-22T09:55:48.803Z,11.60
2019-02-22T09:58:19.216Z,11.90
2019-02-22T10:00:49.787Z,12.10
2019-02-22T10:03:20.626Z,12.10
2019-02-22T10:05:50.248Z,12.20
2019-02-22T10:08:19.877Z,12.50
2019-02-22T10:10:49.473Z,12.70
2019-02-22T10:13:19.167Z,13.00
2019-02-22T10:15:48.792Z,13.00
2019-02-22T10:18:18.391Z,13.10
2019-02-22T10:20:48.082Z,13.10
2019-02-22T10:23:17.677Z,13.00
2019-02-22T10:25:47.395Z,12.80
2019-02-22T10:28:18.773Z,12.60
2019-02-22T10:30:48.401Z,12.20
2019-02-22T10:33:18.001Z,12.10
2019-02-22T10:35:47.893Z,12.10
2019-02-22T10:38:17.483Z,12.10
2019-02-22T10:40:47.117Z,12.20
2019-02-22T10:43:16.742Z,12.40
2019-02-22T10:45:47.205Z,12.50
2019-02-22T10:48:16.788Z,12.80
2019-02-22T10:50:46.421Z,12.80
2019-02-22T10:53:16.051Z,12.80
2019-02-22T10:55:45.683Z,12.80
2019-02-22T10:58:15.320Z,12.60
2019-02-22T11:00:44.987Z,12.60
2019-02-22T11:03:15.416Z,12.60
2019-02-22T11:05:45.015Z,12.70
2019-02-22T11:08:14.711Z,12.60
2019-02-22T11:10:45.431Z,12.60
2019-02-22T11:13:15.071Z,12.80
2019-02-22T11:15:44.748Z,12.90
2019-02-22T11:18:14.374Z,13.20
2019-02-22T11:20:43.969Z,13.20
2019-02-22T11:23:13.593Z,13.10
2019-02-22T11:25:43.459Z,13.10
2019-02-22T11:28:13.060Z,13.10
2019-02-22T11:30:42.765Z,13.40
2019-02-22T11:33:12.351Z,13.60
2019-02-22T11:35:42.224Z,13.60
2019-02-22T11:38:11.889Z,13.50
2019-02-22T11:40:43.256Z,13.70
2019-02-22T11:43:13.556Z,13.80
2019-02-22T11:45:43.188Z,13.70
2019-02-22T11:48:12.852Z,13.80
2019-02-22T11:50:42.469Z,14.20
2019-02-22T11:53:12.097Z,14.20
2019-02-22T11:55:41.774Z,14.20
2019-02-22T11:58:11.663Z,13.90
2019-02-22T12:00:41.625Z,13.60
2019-02-22T12:03:23.875Z,13.50
2019-02-22T12:05:42.660Z,13.60
2019-02-22T12:08:13.057Z,13.70
2019-02-22T12:10:42.718Z,14.00
2019-02-22T12:13:12.415Z,13.90
2019-02-22T12:15:42.014Z,13.80
2019-02-22T12:18:11.780Z,13.50
2019-02-22T12:20:41.388Z,13.50
2019-02-22T12:23:11.263Z,13.80
2019-02-22T12:25:40.885Z,13.90
2019-02-22T12:28:10.606Z,13.80
2019-02-22T12:30:40.281Z,13.70
2019-02-22T12:33:10.520Z,13.90
2019-02-22T12:35:40.143Z,14.20
2019-02-22T12:38:09.777Z,14.30
2019-02-22T12:40:39.478Z,14.40
2019-02-22T12:43:09.074Z,14.50
2019-02-22T12:45:38.706Z,14.40
2019-02-22T12:48:08.335Z,14.40
2019-02-22T12:50:37.964Z,14.10
2019-02-22T12:53:07.557Z,14.00
2019-02-22T12:55:37.182Z,14.10
2019-02-22T12:58:06.792Z,14.20
2019-02-22T13:00:36.412Z,14.00
2019-02-22T13:03:06.555Z,13.80
2019-02-22T13:05:36.272Z,13.60
2019-02-22T13:08:06.888Z,13.50
2019-02-22T13:10:36.488Z,13.40
2019-02-22T13:13:06.175Z,13.40
2019-02-22T13:15:35.775Z,13.30
2019-02-22T13:18:05.472Z,13.10
2019-02-22T13:20:35.108Z,13.00
2019-02-22T13:23:04.713Z,12.90
2019-02-22T13:25:34.367Z,12.90
2019-02-22T13:28:03.954Z,13.10
2019-02-22T13:30:33.590Z,13.30
2019-02-22T13:33:03.459Z,13.30
2019-02-22T13:35:33.334Z,13.40
2019-02-22T13:38:03.018Z,13.50
2019-02-22T13:40:32.649Z,13.60
2019-02-22T13:43:02.250Z,13.50
2019-02-22T13:45:31.984Z,13.40
2019-02-22T13:48:01.614Z,13.20
2019-02-22T13:50:31.381Z,13.40
2019-02-22T13:53:00.979Z,13.60
2019-02-22T13:55:30.987Z,13.70
2019-02-22T13:58:00.687Z,13.60
2019-02-22T14:00:30.323Z,13.70
2019-02-22T14:02:59.920Z,13.50
2019-02-22T14:05:32.802Z,13.40
2019-02-22T14:08:03.106Z,13.30
2019-02-22T14:10:32.754Z,13.20
2019-02-22T14:13:02.388Z,13.20
2019-02-22T14:15:37.946Z,13.30
2019-02-22T14:18:03.428Z,13.40
2019-02-22T14:20:33.106Z,13.40
2019-02-22T14:23:03.597Z,13.30
2019-02-22T14:25:33.578Z,13.20
2019-02-22T14:28:03.216Z,13.30
2019-02-22T14:30:32.813Z,13.20
2019-02-22T14:33:02.425Z,13.20
2019-02-22T14:35:32.310Z,13.40
2019-02-22T14:38:01.945Z,13.60
2019-02-22T14:40:31.669Z,13.80
2019-02-22T14:43:01.286Z,14.00
2019-02-22T14:45:30.896Z,14.10
2019-02-22T14:48:00.525Z,14.00
2019-02-22T14:50:30.878Z,13.90
2019-02-22T14:53:00.529Z,13.70
2019-02-22T14:55:30.143Z,13.60
2019-02-22T14:57:59.742Z,13.50
2019-02-22T15:00:29.435Z,13.40
2019-02-22T15:02:59.067Z,13.40
2019-02-22T15:05:28.665Z,13.40
2019-02-22T15:07:58.322Z,13.30
2019-02-22T15:10:29.109Z,13.20
2019-02-22T15:12:58.704Z,13.10
2019-02-22T15:15:29.969Z,13.00
2019-02-22T15:18:06.824Z,13.10
2019-02-22T15:20:36.449Z,12.80
2019-02-22T15:23:06.083Z,12.60
2019-02-22T15:25:35.693Z,12.50
2019-02-22T15:28:05.317Z,12.60
2019-02-22T15:30:35.012Z,12.50
2019-02-22T15:33:05.635Z,12.30
2019-02-22T15:35:35.327Z,12.10
2019-02-22T15:38:05.020Z,12.00
2019-02-22T15:40:34.623Z,11.90
2019-02-22T15:43:04.325Z,11.90
2019-02-22T15:45:35.789Z,11.90
2019-02-22T15:48:05.414Z,11.90
2019-02-22T15:50:35.115Z,11.80
2019-02-22T15:53:04.988Z,11.70
2019-02-22T15:55:34.668Z,11.60
2019-02-22T15:58:04.295Z,11.50
2019-02-22T16:00:36.289Z,11.40
2019-02-22T16:03:06.206Z,11.50
2019-02-22T16:05:37.508Z,11.50
2019-02-22T16:08:07.924Z,11.40
2019-02-22T16:10:38.526Z,11.30
2019-02-22T16:13:08.217Z,11.20
2019-02-22T16:15:40.570Z,11.20
2019-02-22T16:18:09.238Z,11.10
2019-02-22T16:20:38.838Z,11.00
2019-02-22T16:23:08.441Z,11.00
2019-02-22T16:25:39.598Z,10.90
2019-02-22T16:28:09.197Z,10.80
2019-02-22T16:30:38.957Z,10.80
2019-02-22T16:33:08.558Z,10.80
2019-02-22T16:35:38.191Z,10.90
2019-02-22T16:38:07.790Z,10.90
2019-02-22T16:40:37.384Z,10.80
2019-02-22T16:43:07.003Z,10.80
2019-02-22T16:45:36.634Z,10.80
2019-02-22T16:48:06.379Z,10.80
2019-02-22T16:50:35.999Z,10.80
2019-02-22T16:53:05.628Z,10.70
2019-02-22T16:55:35.242Z,10.70
2019-02-22T16:58:04.832Z,10.70
2019-02-22T17:00:34.460Z,10.60
2019-02-22T17:03:04.554Z,10.60
2019-02-22T17:05:34.221Z,10.60
2019-02-22T17:08:03.845Z,10.60
2019-02-22T17:10:33.442Z,10.70
2019-02-22T17:13:03.069Z,10.70
2019-02-22T17:15:32.771Z,10.60
2019-02-22T17:18:02.391Z,10.50
2019-02-22T17:20:31.990Z,10.40
2019-02-22T17:23:01.622Z,10.30
2019-02-22T17:25:31.215Z,10.30
2019-02-22T17:28:01.196Z,10.30
2019-02-22T17:30:30.796Z,10.20
2019-02-22T17:33:00.430Z,10.10
2019-02-22T17:35:30.030Z,9.80
2019-02-22T17:37:59.667Z,9.80
2019-02-22T17:40:32.336Z,9.60
2019-02-22T17:43:01.963Z,9.70
2019-02-22T17:45:31.552Z,9.70
2019-02-22T17:48:01.197Z,9.60
2019-02-22T17:50:30.834Z,9.50
2019-02-22T17:53:00.456Z,9.40
2019-02-22T17:55:30.078Z,9.50
2019-02-22T17:57:59.698Z,9.60
2019-02-22T18:00:29.315Z,9.70
2019-02-22T18:02:58.941Z,9.70
2019-02-22T18:05:28.551Z,9.60
2019-02-22T18:07:58.393Z,9.70
2019-02-22T18:10:28.009Z,9.70
2019-02-22T18:12:57.605Z,9.60
2019-02-22T18:15:27.228Z,9.60
2019-02-22T18:17:56.822Z,9.60
2019-02-22T18:20:26.515Z,9.70
2019-02-22T18:22:57.138Z,9.60
2019-02-22T18:25:26.750Z,9.60
2019-02-22T18:27:56.353Z,9.40
2019-02-22T18:30:26.485Z,9.40
2019-02-22T18:32:56.113Z,9.40
2019-02-22T18:35:25.730Z,9.40
2019-02-22T18:37:55.351Z,9.40
2019-02-22T18:40:24.966Z,9.40
2019-02-22T18:42:54.583Z,9.30
2019-02-22T18:45:24.168Z,9.30
2019-02-22T18:47:53.787Z,9.30
2019-02-22T18:50:23.374Z,9.20
2019-02-22T18:52:52.991Z,9.20
2019-02-22T18:55:22.598Z,9.20
2019-02-22T18:57:52.214Z,9.10
2019-02-22T19:00:22.574Z,9.10
2019-02-22T19:02:52.182Z,9.00
2019-02-22T19:05:22.554Z,8.90
2019-02-22T19:07:52.740Z,8.90
2019-02-22T19:10:22.363Z,8.90
2019-02-22T19:12:51.949Z,8.80
2019-02-22T19:15:21.653Z,8.70
2019-02-22T19:17:51.266Z,8.70
2019-02-22T19:20:21.893Z,8.70
2019-02-22T19:22:51.502Z,8.70
2019-02-22T19:25:21.185Z,8.70
2019-02-22T19:27:50.799Z,8.60
2019-02-22T19:30:23.823Z,8.50
2019-02-22T19:32:53.427Z,8.40
2019-02-22T19:35:23.088Z,8.40
2019-02-22T19:37:52.775Z,8.30
2019-02-22T19:40:29.201Z,8.30
2019-02-22T19:42:58.819Z,8.40
2019-02-22T19:45:28.475Z,8.40
2019-02-22T19:47:58.085Z,8.40
2019-02-22T19:50:27.671Z,8.30
2019-02-22T19:52:57.869Z,8.30
2019-02-22T19:55:27.463Z,8.10
2019-02-22T19:57:57.117Z,8.10
2019-02-22T20:00:26.803Z,8.10
2019-02-22T20:02:56.393Z,8.10
2019-02-22T20:05:26.012Z,7.90
2019-02-22T20:07:55.598Z,7.80
2019-02-22T20:10:25.718Z,7.90
2019-02-22T20:12:55.315Z,7.90
2019-02-22T20:15:24.997Z,7.90
2019-02-22T20:17:55.142Z,7.90
2019-02-22T20:20:24.890Z,7.70
2019-02-22T20:22:54.469Z,7.60
2019-02-22T20:25:24.226Z,7.60
2019-02-22T20:27:53.853Z,7.60
2019-02-22T20:30:23.444Z,7.60
2019-02-22T20:32:53.036Z,7.60
2019-02-22T20:35:25.831Z,7.50
2019-02-22T20:37:55.412Z,7.50
2019-02-22T20:40:25.029Z,7.50
2019-02-22T20:42:54.620Z,7.50
2019-02-22T20:45:24.311Z,7.50
2019-02-22T20:48:04.206Z,7.50
2019-02-22T20:50:25.277Z,7.50
2019-02-22T20:52:54.905Z,7.40
2019-02-22T20:55:24.489Z,7.40
2019-02-22T20:57:54.086Z,7.40
2019-02-22T21:00:29.183Z,7.30
2019-02-22T21:02:58.798Z,7.40
2019-02-22T21:05:28.388Z,7.30
2019-02-22T21:07:58.297Z,7.30
2019-02-22T21:10:27.919Z,7.30
2019-02-22T21:12:57.607Z,7.20
2019-02-22T21:15:27.232Z,7.20
2019-02-22T21:17:56.848Z,7.20
2019-02-22T21:20:26.439Z,7.10
2019-02-22T21:22:56.054Z,7.00
2019-02-22T21:25:25.638Z,7.00
2019-02-22T21:27:55.263Z,7.00
2019-02-22T21:30:24.851Z,6.90
2019-02-22T21:32:54.438Z,6.90
2019-02-22T21:35:24.122Z,7.00
2019-02-22T21:37:53.815Z,6.90
2019-02-22T21:40:23.401Z,6.80
2019-02-22T21:42:52.993Z,6.90
2019-02-22T21:45:22.665Z,6.90
2019-02-22T21:47:55.408Z,6.80
2019-02-22T21:50:23.601Z,6.70
2019-02-22T21:52:53.175Z,6.70
2019-02-22T21:55:22.794Z,6.50
2019-02-22T21:57:52.396Z,6.60
2019-02-22T22:00:28.266Z,6.60
2019-02-22T22:02:57.884Z,6.50
2019-02-22T22:05:27.502Z,6.50
2019-02-22T22:07:57.999Z,6.40
2019-02-22T22:10:27.653Z,6.40
2019-02-22T22:12:57.276Z,6.30
2019-02-22T22:15:26.896Z,6.20
2019-02-22T22:17:56.516Z,6.10
2019-02-22T22:20:26.132Z,5.70
2019-02-22T22:22:55.750Z,5.70
2019-02-22T22:25:25.343Z,5.80
2019-02-22T22:27:54.931Z,5.80
2019-02-22T22:30:24.541Z,5.80
2019-02-22T22:32:54.131Z,5.90
2019-02-22T22:35:23.753Z,6.00
2019-02-22T22:37:53.341Z,6.00
2019-02-22T22:40:22.957Z,6.00
2019-02-22T22:42:52.593Z,6.00
2019-02-22T22:45:22.213Z,6.00
2019-02-22T22:47:51.857Z,5.80
2019-02-22T22:50:21.478Z,5.60
2019-02-22T22:52:51.072Z,5.30
2019-02-22T22:55:20.657Z,4.90
2019-02-22T22:57:50.269Z,4.70
2019-02-22T23:00:51.332Z,4.40
2019-02-22T23:03:21.829Z,4.30
2019-02-22T23:05:51.424Z,4.10
2019-02-22T23:08:21.043Z,3.90
2019-02-22T23:10:50.772Z,3.90
2019-02-22T23:13:20.460Z,3.90
2019-02-22T23:15:50.048Z,3.80
2019-02-22T23:18:19.670Z,3.50
2019-02-22T23:20:49.326Z,3.40
2019-02-22T23:23:19.163Z,3.30
2019-02-22T23:25:48.893Z,3.40
2019-02-22T23:28:18.488Z,3.50
2019-02-22T23:30:48.100Z,3.50
2019-02-22T23:33:17.677Z,3.40
2019-02-22T23:35:47.301Z,3.30
2019-02-22T23:38:16.903Z,3.20
2019-02-22T23:40:46.491Z,3.00
2019-02-22T23:43:16.124Z,3.00
2019-02-22T23:45:45.705Z,3.00
2019-02-22T23:48:15.329Z,3.00
2019-02-22T23:50:44.949Z,3.00
2019-02-22T23:53:14.553Z,3.00
2019-02-22T23:55:44.166Z,2.80
2019-02-22T23:58:13.761Z,2.70
